sensor_id;sensor_type;location;lat;lon;timestamp;pressure;altitude;pressure_sealevel;temperature;humidity
48874;BME280;35220;46.204;5.220;2022-07-29T00:01:50;98467.75;;;24.56;38.72
48874;BME280;35220;46.204;5.220;2022-07-29T00:06:52;98464.47;;;24.47;38.69
48874;BME280;35220;46.204;5.220;2022-07-29T00:11:53;98468.16;;;24.42;38.89
48874;BME280;35220;46.204;5.220;2022-07-29T00:16:55;98469.97;;;24.22;39.64
48874;BME280;35220;46.204;5.220;2022-07-29T00:21:55;98464.19;;;24.04;39.60
48874;BME280;35220;46.204;5.220;2022-07-29T00:26:55;98466.66;;;23.97;39.82
48874;BME280;35220;46.204;5.220;2022-07-29T00:31:56;98462.25;;;23.89;39.80
48874;BME280;35220;46.204;5.220;2022-07-29T00:36:57;98458.66;;;23.81;40.12
48874;BME280;35220;46.204;5.220;2022-07-29T00:41:57;98467.16;;;23.75;40.00
48874;BME280;35220;46.204;5.220;2022-07-29T00:46:58;98464.94;;;23.77;39.97
48874;BME280;35220;46.204;5.220;2022-07-29T00:52:00;98455.06;;;23.89;39.84
48874;BME280;35220;46.204;5.220;2022-07-29T00:57:01;98452.03;;;23.91;40.17
48874;BME280;35220;46.204;5.220;2022-07-29T01:02:02;98447.88;;;23.78;40.54
48874;BME280;35220;46.204;5.220;2022-07-29T01:07:03;98451.50;;;23.57;40.71
48874;BME280;35220;46.204;5.220;2022-07-29T01:12:04;98456.53;;;23.46;41.04
48874;BME280;35220;46.204;5.220;2022-07-29T01:17:24;98439.84;;;23.33;42.02
48874;BME280;35220;46.204;5.220;2022-07-29T01:22:42;98435.53;;;23.29;41.80
48874;BME280;35220;46.204;5.220;2022-07-29T01:27:58;98442.31;;;23.26;41.96
48874;BME280;35220;46.204;5.220;2022-07-29T01:33:07;98442.75;;;23.28;41.87
48874;BME280;35220;46.204;5.220;2022-07-29T01:38:24;98431.00;;;23.29;42.02
48874;BME280;35220;46.204;5.220;2022-07-29T01:43:34;98439.50;;;23.35;42.07
48874;BME280;35220;46.204;5.220;2022-07-29T01:48:44;98445.03;;;23.42;41.62
48874;BME280;35220;46.204;5.220;2022-07-29T01:59:06;98428.31;;;23.42;41.79
48874;BME280;35220;46.204;5.220;2022-07-29T02:04:09;98432.34;;;23.23;42.44
48874;BME280;35220;46.204;5.220;2022-07-29T02:09:12;98431.94;;;23.09;42.46
48874;BME280;35220;46.204;5.220;2022-07-29T02:14:15;98435.91;;;23.03;42.46
48874;BME280;35220;46.204;5.220;2022-07-29T02:19:19;98439.03;;;23.05;42.43
48874;BME280;35220;46.204;5.220;2022-07-29T02:24:22;98431.59;;;23.10;42.52
48874;BME280;35220;46.204;5.220;2022-07-29T02:29:26;98427.47;;;23.13;42.43
48874;BME280;35220;46.204;5.220;2022-07-29T02:34:28;98419.63;;;23.04;42.61
48874;BME280;35220;46.204;5.220;2022-07-29T02:39:30;98420.44;;;23.05;42.80
48874;BME280;35220;46.204;5.220;2022-07-29T02:44:31;98430.03;;;22.97;42.80
48874;BME280;35220;46.204;5.220;2022-07-29T02:49:48;98442.66;;;23.00;42.62
48874;BME280;35220;46.204;5.220;2022-07-29T02:55:00;98444.22;;;23.01;43.17
48874;BME280;35220;46.204;5.220;2022-07-29T03:00:05;98435.91;;;23.03;42.83
48874;BME280;35220;46.204;5.220;2022-07-29T03:05:09;98434.03;;;23.03;42.93
48874;BME280;35220;46.204;5.220;2022-07-29T03:10:11;98444.00;;;23.06;42.97
48874;BME280;35220;46.204;5.220;2022-07-29T03:15:12;98454.84;;;22.89;43.45
48874;BME280;35220;46.204;5.220;2022-07-29T03:20:13;98453.63;;;22.86;43.39
48874;BME280;35220;46.204;5.220;2022-07-29T03:25:15;98457.06;;;22.87;43.42
48874;BME280;35220;46.204;5.220;2022-07-29T03:30:16;98460.28;;;22.80;43.41
48874;BME280;35220;46.204;5.220;2022-07-29T03:35:17;98458.59;;;22.75;43.63
48874;BME280;35220;46.204;5.220;2022-07-29T03:40:24;98461.63;;;22.62;44.93
48874;BME280;35220;46.204;5.220;2022-07-29T03:45:26;98464.47;;;22.44;44.41
48874;BME280;35220;46.204;5.220;2022-07-29T03:50:30;98475.53;;;22.34;44.85
48874;BME280;35220;46.204;5.220;2022-07-29T03:55:35;98457.78;;;22.26;44.88
48874;BME280;35220;46.204;5.220;2022-07-29T04:00:37;98470.38;;;22.16;44.94
48874;BME280;35220;46.204;5.220;2022-07-29T04:05:38;98475.00;;;22.07;45.07
48874;BME280;35220;46.204;5.220;2022-07-29T04:10:38;98494.09;;;22.00;45.57
48874;BME280;35220;46.204;5.220;2022-07-29T04:15:39;98497.75;;;22.08;45.11
48874;BME280;35220;46.204;5.220;2022-07-29T04:20:39;98489.13;;;22.11;45.32
48874;BME280;35220;46.204;5.220;2022-07-29T04:25:40;98492.19;;;22.01;45.75
48874;BME280;35220;46.204;5.220;2022-07-29T04:30:41;98501.16;;;21.96;45.54
48874;BME280;35220;46.204;5.220;2022-07-29T04:35:41;98517.59;;;21.90;45.62
48874;BME280;35220;46.204;5.220;2022-07-29T04:40:42;98498.81;;;21.95;45.45
48874;BME280;35220;46.204;5.220;2022-07-29T04:45:42;98493.31;;;22.00;45.58
48874;BME280;35220;46.204;5.220;2022-07-29T04:50:42;98504.75;;;22.13;45.31
48874;BME280;35220;46.204;5.220;2022-07-29T04:55:44;98525.31;;;22.16;45.05
48874;BME280;35220;46.204;5.220;2022-07-29T05:00:45;98512.81;;;22.16;45.43
48874;BME280;35220;46.204;5.220;2022-07-29T05:05:45;98520.28;;;22.02;45.75
48874;BME280;35220;46.204;5.220;2022-07-29T05:10:46;98522.50;;;22.00;45.84
48874;BME280;35220;46.204;5.220;2022-07-29T05:15:47;98528.44;;;21.97;45.91
48874;BME280;35220;46.204;5.220;2022-07-29T05:20:47;98522.19;;;22.01;45.55
48874;BME280;35220;46.204;5.220;2022-07-29T05:25:47;98522.88;;;22.11;45.75
48874;BME280;35220;46.204;5.220;2022-07-29T05:30:48;98531.84;;;22.18;45.49
48874;BME280;35220;46.204;5.220;2022-07-29T05:35:49;98539.38;;;21.95;46.19
48874;BME280;35220;46.204;5.220;2022-07-29T05:40:49;98554.59;;;22.07;45.80
48874;BME280;35220;46.204;5.220;2022-07-29T05:45:50;98553.88;;;22.19;45.78
48874;BME280;35220;46.204;5.220;2022-07-29T05:50:50;98558.78;;;22.29;45.67
48874;BME280;35220;46.204;5.220;2022-07-29T05:55:51;98567.09;;;22.40;45.25
48874;BME280;35220;46.204;5.220;2022-07-29T06:00:52;98574.09;;;22.45;45.20
48874;BME280;35220;46.204;5.220;2022-07-29T06:05:53;98574.63;;;22.38;45.54
48874;BME280;35220;46.204;5.220;2022-07-29T06:10:53;98567.44;;;22.38;45.29
48874;BME280;35220;46.204;5.220;2022-07-29T06:15:54;98569.00;;;22.52;45.22
48874;BME280;35220;46.204;5.220;2022-07-29T06:20:55;98553.53;;;22.54;45.28
48874;BME280;35220;46.204;5.220;2022-07-29T06:25:55;98557.44;;;22.69;44.88
48874;BME280;35220;46.204;5.220;2022-07-29T06:30:56;98568.09;;;22.81;44.50
48874;BME280;35220;46.204;5.220;2022-07-29T06:35:56;98575.59;;;22.91;44.46
48874;BME280;35220;46.204;5.220;2022-07-29T06:40:58;98566.22;;;22.94;44.70
48874;BME280;35220;46.204;5.220;2022-07-29T06:46:13;98579.41;;;23.03;44.78
48874;BME280;35220;46.204;5.220;2022-07-29T06:51:14;98598.91;;;23.19;44.41
48874;BME280;35220;46.204;5.220;2022-07-29T06:56:14;98605.53;;;23.13;44.43
48874;BME280;35220;46.204;5.220;2022-07-29T07:01:15;98604.44;;;23.26;44.31
48874;BME280;35220;46.204;5.220;2022-07-29T07:06:16;98599.91;;;23.39;44.01
48874;BME280;35220;46.204;5.220;2022-07-29T07:11:16;98613.84;;;23.36;44.09
48874;BME280;35220;46.204;5.220;2022-07-29T07:16:17;98623.72;;;23.48;43.69
48874;BME280;35220;46.204;5.220;2022-07-29T07:21:17;98634.25;;;23.44;44.12
48874;BME280;35220;46.204;5.220;2022-07-29T07:26:18;98643.78;;;23.45;44.16
48874;BME280;35220;46.204;5.220;2022-07-29T07:31:18;98633.81;;;23.42;43.89
48874;BME280;35220;46.204;5.220;2022-07-29T07:36:19;98643.88;;;23.49;43.88
48874;BME280;35220;46.204;5.220;2022-07-29T07:41:20;98640.88;;;23.63;43.64
48874;BME280;35220;46.204;5.220;2022-07-29T07:46:20;98638.56;;;23.61;44.04
48874;BME280;35220;46.204;5.220;2022-07-29T07:51:20;98641.22;;;23.61;43.87
48874;BME280;35220;46.204;5.220;2022-07-29T07:56:21;98641.31;;;23.77;43.64
48874;BME280;35220;46.204;5.220;2022-07-29T08:01:21;98619.81;;;23.70;44.04
48874;BME280;35220;46.204;5.220;2022-07-29T08:06:22;98624.78;;;23.71;44.11
48874;BME280;35220;46.204;5.220;2022-07-29T08:11:25;98628.69;;;23.74;44.09
48874;BME280;35220;46.204;5.220;2022-07-29T08:16:25;98617.94;;;23.83;43.98
48874;BME280;35220;46.204;5.220;2022-07-29T08:21:25;98624.56;;;23.77;44.12
48874;BME280;35220;46.204;5.220;2022-07-29T08:26:26;98627.75;;;23.95;43.88
48874;BME280;35220;46.204;5.220;2022-07-29T08:31:26;98629.56;;;23.90;43.78
48874;BME280;35220;46.204;5.220;2022-07-29T08:36:27;98632.97;;;23.91;43.88
48874;BME280;35220;46.204;5.220;2022-07-29T08:41:27;98642.72;;;23.99;43.72
48874;BME280;35220;46.204;5.220;2022-07-29T08:46:28;98637.91;;;24.17;43.55
48874;BME280;35220;46.204;5.220;2022-07-29T08:51:29;98648.31;;;24.22;43.57
48874;BME280;35220;46.204;5.220;2022-07-29T08:56:30;98647.06;;;24.32;43.69
48874;BME280;35220;46.204;5.220;2022-07-29T09:01:33;98662.47;;;24.39;43.33
48874;BME280;35220;46.204;5.220;2022-07-29T09:06:37;98664.63;;;24.21;43.40
48874;BME280;35220;46.204;5.220;2022-07-29T09:11:37;98660.00;;;24.05;43.68
48874;BME280;35220;46.204;5.220;2022-07-29T09:16:53;98667.97;;;24.05;43.48
48874;BME280;35220;46.204;5.220;2022-07-29T09:21:55;98676.75;;;24.06;43.73
48874;BME280;35220;46.204;5.220;2022-07-29T09:26:58;98680.50;;;24.17;43.53
48874;BME280;35220;46.204;5.220;2022-07-29T09:32:00;98693.16;;;24.20;43.23
48874;BME280;35220;46.204;5.220;2022-07-29T09:37:03;98696.47;;;24.17;43.25
48874;BME280;35220;46.204;5.220;2022-07-29T09:42:05;98703.13;;;24.23;43.26
48874;BME280;35220;46.204;5.220;2022-07-29T09:47:06;98702.66;;;24.21;43.36
48874;BME280;35220;46.204;5.220;2022-07-29T09:52:09;98704.63;;;24.37;43.01
48874;BME280;35220;46.204;5.220;2022-07-29T09:57:22;98707.38;;;24.40;42.84
48874;BME280;35220;46.204;5.220;2022-07-29T10:02:27;98715.13;;;24.58;43.00
48874;BME280;35220;46.204;5.220;2022-07-29T10:07:42;98727.66;;;24.70;42.40
48874;BME280;35220;46.204;5.220;2022-07-29T10:12:49;98751.13;;;24.80;42.27
48874;BME280;35220;46.204;5.220;2022-07-29T10:17:51;98763.53;;;24.88;42.16
48874;BME280;35220;46.204;5.220;2022-07-29T10:22:52;98769.56;;;25.01;42.09
48874;BME280;35220;46.204;5.220;2022-07-29T10:27:53;98761.66;;;25.04;42.38
48874;BME280;35220;46.204;5.220;2022-07-29T10:43:41;98780.59;;;25.15;42.72
48874;BME280;35220;46.204;5.220;2022-07-29T10:49:12;98785.13;;;24.99;42.61
48874;BME280;35220;46.204;5.220;2022-07-29T10:54:13;98780.56;;;24.99;42.96
48874;BME280;35220;46.204;5.220;2022-07-29T11:15:14;98781.09;;;25.33;42.38
48874;BME280;35220;46.204;5.220;2022-07-29T11:25:46;98792.66;;;25.69;41.90
48874;BME280;35220;46.204;5.220;2022-07-29T11:31:08;98790.94;;;25.77;41.91
48874;BME280;35220;46.204;5.220;2022-07-29T11:36:14;98781.72;;;25.90;41.84
48874;BME280;35220;46.204;5.220;2022-07-29T11:41:27;98780.59;;;26.07;41.82
48874;BME280;35220;46.204;5.220;2022-07-29T11:46:49;98773.47;;;26.31;41.63
48874;BME280;35220;46.204;5.220;2022-07-29T11:51:51;98770.81;;;26.50;41.43
48874;BME280;35220;46.204;5.220;2022-07-29T11:56:52;98768.25;;;26.73;41.53
48874;BME280;35220;46.204;5.220;2022-07-29T12:01:54;98759.81;;;26.91;41.33
48874;BME280;35220;46.204;5.220;2022-07-29T12:06:56;98759.16;;;26.98;41.58
48874;BME280;35220;46.204;5.220;2022-07-29T12:11:57;98745.22;;;27.27;41.21
48874;BME280;35220;46.204;5.220;2022-07-29T12:16:58;98736.56;;;27.38;40.92
48874;BME280;35220;46.204;5.220;2022-07-29T12:21:59;98742.47;;;27.47;40.83
48874;BME280;35220;46.204;5.220;2022-07-29T12:27:00;98741.59;;;27.66;40.67
48874;BME280;35220;46.204;5.220;2022-07-29T12:32:00;98741.66;;;27.69;40.10
48874;BME280;35220;46.204;5.220;2022-07-29T12:37:01;98735.28;;;27.78;39.86
48874;BME280;35220;46.204;5.220;2022-07-29T12:42:13;98730.94;;;28.23;38.29
48874;BME280;35220;46.204;5.220;2022-07-29T12:47:15;98741.78;;;28.60;38.33
48874;BME280;35220;46.204;5.220;2022-07-29T12:52:32;98740.22;;;28.97;36.18
48874;BME280;35220;46.204;5.220;2022-07-29T12:57:47;98731.81;;;29.39;35.86
48874;BME280;35220;46.204;5.220;2022-07-29T13:02:58;98724.31;;;29.63;36.19
48874;BME280;35220;46.204;5.220;2022-07-29T13:08:13;98719.13;;;29.85;35.50
48874;BME280;35220;46.204;5.220;2022-07-29T13:13:14;98723.53;;;30.29;34.72
48874;BME280;35220;46.204;5.220;2022-07-29T13:18:34;98725.63;;;30.71;33.63
48874;BME280;35220;46.204;5.220;2022-07-29T13:23:36;98719.47;;;30.67;34.47
48874;BME280;35220;46.204;5.220;2022-07-29T13:28:37;98714.97;;;30.97;33.70
48874;BME280;35220;46.204;5.220;2022-07-29T13:33:37;98714.59;;;31.38;32.95
48874;BME280;35220;46.204;5.220;2022-07-29T13:38:38;98718.81;;;31.50;32.32
48874;BME280;35220;46.204;5.220;2022-07-29T13:43:38;98709.22;;;31.52;32.04
48874;BME280;35220;46.204;5.220;2022-07-29T13:48:39;98707.63;;;31.69;31.78
48874;BME280;35220;46.204;5.220;2022-07-29T13:53:39;98712.56;;;32.10;31.16
48874;BME280;35220;46.204;5.220;2022-07-29T13:58:39;98702.38;;;32.47;30.76
48874;BME280;35220;46.204;5.220;2022-07-29T14:03:40;98700.69;;;32.82;30.23
48874;BME280;35220;46.204;5.220;2022-07-29T14:08:43;98696.47;;;32.77;30.24
48874;BME280;35220;46.204;5.220;2022-07-29T14:13:43;98696.91;;;33.24;29.18
48874;BME280;35220;46.204;5.220;2022-07-29T14:18:44;98687.78;;;33.52;28.98
48874;BME280;35220;46.204;5.220;2022-07-29T14:23:44;98682.59;;;34.03;28.44
48874;BME280;35220;46.204;5.220;2022-07-29T14:28:45;98685.25;;;34.38;27.58
48874;BME280;35220;46.204;5.220;2022-07-29T14:33:45;98682.75;;;34.81;27.36
48874;BME280;35220;46.204;5.220;2022-07-29T14:38:46;98674.16;;;35.10;26.89
48874;BME280;35220;46.204;5.220;2022-07-29T14:43:46;98686.53;;;35.11;26.42
48874;BME280;35220;46.204;5.220;2022-07-29T14:48:46;98668.13;;;34.21;26.41
48874;BME280;35220;46.204;5.220;2022-07-29T14:53:47;98674.16;;;33.67;26.70
48874;BME280;35220;46.204;5.220;2022-07-29T14:58:47;98668.78;;;33.98;26.23
48874;BME280;35220;46.204;5.220;2022-07-29T15:03:47;98668.50;;;33.47;26.55
48874;BME280;35220;46.204;5.220;2022-07-29T15:08:48;98670.00;;;33.06;26.74
48874;BME280;35220;46.204;5.220;2022-07-29T15:13:48;98665.13;;;32.94;26.34
48874;BME280;35220;46.204;5.220;2022-07-29T15:18:49;98675.50;;;32.95;26.28
48874;BME280;35220;46.204;5.220;2022-07-29T15:23:49;98655.22;;;33.25;26.10
48874;BME280;35220;46.204;5.220;2022-07-29T15:28:50;98669.41;;;32.84;26.44
48874;BME280;35220;46.204;5.220;2022-07-29T15:33:51;98663.97;;;32.32;27.31
48874;BME280;35220;46.204;5.220;2022-07-29T15:38:52;98659.06;;;32.09;27.44
48874;BME280;35220;46.204;5.220;2022-07-29T15:43:53;98668.00;;;31.73;27.54
48874;BME280;35220;46.204;5.220;2022-07-29T15:48:54;98663.03;;;31.28;28.33
48874;BME280;35220;46.204;5.220;2022-07-29T15:53:54;98671.91;;;31.11;28.48
48874;BME280;35220;46.204;5.220;2022-07-29T15:58:56;98677.28;;;31.25;28.16
48874;BME280;35220;46.204;5.220;2022-07-29T16:03:57;98676.09;;;31.41;28.15
48874;BME280;35220;46.204;5.220;2022-07-29T16:08:57;98686.88;;;30.94;28.64
48874;BME280;35220;46.204;5.220;2022-07-29T16:13:59;98675.31;;;30.68;28.93
48874;BME280;35220;46.204;5.220;2022-07-29T16:18:59;98671.06;;;30.53;28.67
48874;BME280;35220;46.204;5.220;2022-07-29T16:24:00;98691.41;;;30.47;28.76
48874;BME280;35220;46.204;5.220;2022-07-29T16:29:01;98668.00;;;30.58;28.65
48874;BME280;35220;46.204;5.220;2022-07-29T16:34:01;98667.69;;;31.10;28.09
48874;BME280;35220;46.204;5.220;2022-07-29T16:39:01;98662.63;;;31.41;27.97
48874;BME280;35220;46.204;5.220;2022-07-29T16:44:04;98658.06;;;31.05;28.08
48874;BME280;35220;46.204;5.220;2022-07-29T16:49:04;98658.06;;;31.23;27.60
48874;BME280;35220;46.204;5.220;2022-07-29T16:54:05;98662.66;;;31.34;27.51
48874;BME280;35220;46.204;5.220;2022-07-29T16:59:05;98653.38;;;31.67;27.17
48874;BME280;35220;46.204;5.220;2022-07-29T17:04:06;98661.81;;;31.83;27.14
48874;BME280;35220;46.204;5.220;2022-07-29T17:09:08;98666.88;;;31.56;27.56
48874;BME280;35220;46.204;5.220;2022-07-29T17:14:09;98677.69;;;31.20;27.96
48874;BME280;35220;46.204;5.220;2022-07-29T17:19:09;98675.75;;;30.99;28.01
48874;BME280;35220;46.204;5.220;2022-07-29T17:24:10;98676.50;;;31.18;27.70
48874;BME280;35220;46.204;5.220;2022-07-29T17:29:10;98682.69;;;31.11;28.03
48874;BME280;35220;46.204;5.220;2022-07-29T17:34:11;98680.72;;;30.90;28.23
48874;BME280;35220;46.204;5.220;2022-07-29T17:39:11;98696.78;;;30.50;28.45
48874;BME280;35220;46.204;5.220;2022-07-29T17:44:12;98695.50;;;30.19;28.48
48874;BME280;35220;46.204;5.220;2022-07-29T17:49:12;98694.69;;;30.08;28.56
48874;BME280;35220;46.204;5.220;2022-07-29T17:54:13;98702.19;;;29.81;28.84
48874;BME280;35220;46.204;5.220;2022-07-29T17:59:13;98709.72;;;29.61;29.00
48874;BME280;35220;46.204;5.220;2022-07-29T18:04:14;98714.25;;;29.49;29.29
48874;BME280;35220;46.204;5.220;2022-07-29T18:09:19;98713.38;;;29.34;29.13
48874;BME280;35220;46.204;5.220;2022-07-29T18:14:19;98712.09;;;29.17;29.25
48874;BME280;35220;46.204;5.220;2022-07-29T18:19:19;98709.34;;;29.14;29.20
48874;BME280;35220;46.204;5.220;2022-07-29T18:24:23;98712.72;;;29.48;28.97
48874;BME280;35220;46.204;5.220;2022-07-29T18:29:24;98717.84;;;29.68;28.70
48874;BME280;35220;46.204;5.220;2022-07-29T18:34:27;98718.81;;;30.01;28.88
48874;BME280;35220;46.204;5.220;2022-07-29T18:39:28;98714.00;;;30.35;28.34
48874;BME280;35220;46.204;5.220;2022-07-29T18:44:28;98717.03;;;30.30;28.46
48874;BME280;35220;46.204;5.220;2022-07-29T18:49:29;98716.63;;;30.21;28.59
48874;BME280;35220;46.204;5.220;2022-07-29T18:54:29;98723.72;;;29.84;28.85
48874;BME280;35220;46.204;5.220;2022-07-29T18:59:30;98736.59;;;29.64;28.86
48874;BME280;35220;46.204;5.220;2022-07-29T19:04:33;98733.84;;;29.53;29.38
48874;BME280;35220;46.204;5.220;2022-07-29T19:09:33;98741.84;;;29.46;29.16
48874;BME280;35220;46.204;5.220;2022-07-29T19:14:34;98741.63;;;29.21;29.41
48874;BME280;35220;46.204;5.220;2022-07-29T19:19:34;98748.63;;;28.95;29.94
48874;BME280;35220;46.204;5.220;2022-07-29T19:24:35;98747.19;;;28.64;30.39
48874;BME280;35220;46.204;5.220;2022-07-29T19:29:35;98746.91;;;28.46;30.27
48874;BME280;35220;46.204;5.220;2022-07-29T19:34:36;98741.06;;;28.37;30.53
48874;BME280;35220;46.204;5.220;2022-07-29T19:39:36;98755.94;;;28.31;30.58
48874;BME280;35220;46.204;5.220;2022-07-29T19:44:37;98758.16;;;28.25;30.88
48874;BME280;35220;46.204;5.220;2022-07-29T19:49:37;98762.63;;;28.17;30.63
48874;BME280;35220;46.204;5.220;2022-07-29T19:54:38;98766.78;;;28.11;31.15
48874;BME280;35220;46.204;5.220;2022-07-29T19:59:38;98772.78;;;28.04;31.06
48874;BME280;35220;46.204;5.220;2022-07-29T20:04:39;98784.16;;;27.98;31.13
48874;BME280;35220;46.204;5.220;2022-07-29T20:09:40;98785.13;;;27.86;31.20
48874;BME280;35220;46.204;5.220;2022-07-29T20:14:41;98789.94;;;27.77;31.17
48874;BME280;35220;46.204;5.220;2022-07-29T20:19:42;98788.25;;;27.65;31.23
48874;BME280;35220;46.204;5.220;2022-07-29T20:24:43;98794.31;;;27.62;31.31
48874;BME280;35220;46.204;5.220;2022-07-29T20:29:44;98793.06;;;27.56;31.74
48874;BME280;35220;46.204;5.220;2022-07-29T20:34:44;98792.56;;;27.50;32.09
48874;BME280;35220;46.204;5.220;2022-07-29T20:39:45;98797.81;;;27.43;31.97
48874;BME280;35220;46.204;5.220;2022-07-29T20:44:46;98802.28;;;27.35;32.56
48874;BME280;35220;46.204;5.220;2022-07-29T20:49:50;98803.72;;;27.29;32.46
48874;BME280;35220;46.204;5.220;2022-07-29T20:54:50;98810.00;;;27.21;32.95
48874;BME280;35220;46.204;5.220;2022-07-29T20:59:51;98811.41;;;27.15;33.03
48874;BME280;35220;46.204;5.220;2022-07-29T21:04:51;98814.41;;;27.09;33.33
48874;BME280;35220;46.204;5.220;2022-07-29T21:09:52;98812.72;;;27.01;33.32
48874;BME280;35220;46.204;5.220;2022-07-29T21:14:52;98817.44;;;26.88;33.63
48874;BME280;35220;46.204;5.220;2022-07-29T21:19:53;98828.41;;;26.83;33.72
48874;BME280;35220;46.204;5.220;2022-07-29T21:24:54;98832.53;;;26.81;33.95
48874;BME280;35220;46.204;5.220;2022-07-29T21:29:54;98832.25;;;26.66;34.24
48874;BME280;35220;46.204;5.220;2022-07-29T21:34:55;98844.72;;;26.43;34.95
48874;BME280;35220;46.204;5.220;2022-07-29T21:39:55;98847.34;;;26.23;35.57
48874;BME280;35220;46.204;5.220;2022-07-29T21:44:56;98860.19;;;26.02;35.98
48874;BME280;35220;46.204;5.220;2022-07-29T21:49:56;98859.72;;;25.84;36.31
48874;BME280;35220;46.204;5.220;2022-07-29T21:54:57;98866.34;;;25.74;36.34
48874;BME280;35220;46.204;5.220;2022-07-29T21:59:57;98862.22;;;25.60;36.51
48874;BME280;35220;46.204;5.220;2022-07-29T22:04:58;98861.22;;;25.53;36.72
48874;BME280;35220;46.204;5.220;2022-07-29T22:09:59;98862.53;;;25.59;36.89
48874;BME280;35220;46.204;5.220;2022-07-29T22:14:59;98860.13;;;25.54;36.90
48874;BME280;35220;46.204;5.220;2022-07-29T22:20:00;98863.03;;;25.49;36.88
48874;BME280;35220;46.204;5.220;2022-07-29T22:25:00;98865.38;;;25.50;37.20
48874;BME280;35220;46.204;5.220;2022-07-29T22:30:01;98862.03;;;25.53;37.31
48874;BME280;35220;46.204;5.220;2022-07-29T22:35:02;98858.22;;;25.54;37.26
48874;BME280;35220;46.204;5.220;2022-07-29T22:40:04;98861.31;;;25.56;37.47
48874;BME280;35220;46.204;5.220;2022-07-29T22:45:04;98859.13;;;25.58;37.82
48874;BME280;35220;46.204;5.220;2022-07-29T22:50:05;98855.97;;;25.56;37.94
48874;BME280;35220;46.204;5.220;2022-07-29T22:55:06;98858.13;;;25.51;38.30
48874;BME280;35220;46.204;5.220;2022-07-29T23:00:07;98852.72;;;25.47;38.41
48874;BME280;35220;46.204;5.220;2022-07-29T23:05:08;98860.94;;;25.42;38.72
48874;BME280;35220;46.204;5.220;2022-07-29T23:10:09;98856.56;;;25.34;38.98
48874;BME280;35220;46.204;5.220;2022-07-29T23:15:10;98858.34;;;25.30;39.23
48874;BME280;35220;46.204;5.220;2022-07-29T23:20:10;98866.13;;;25.22;39.40
48874;BME280;35220;46.204;5.220;2022-07-29T23:25:11;98863.69;;;25.17;39.50
48874;BME280;35220;46.204;5.220;2022-07-29T23:30:11;98864.41;;;25.14;39.42
48874;BME280;35220;46.204;5.220;2022-07-29T23:35:12;98865.50;;;25.13;39.82
48874;BME280;35220;46.204;5.220;2022-07-29T23:40:13;98866.16;;;25.10;39.90
48874;BME280;35220;46.204;5.220;2022-07-29T23:45:13;98867.19;;;25.05;40.00
48874;BME280;35220;46.204;5.220;2022-07-29T23:50:14;98862.53;;;25.02;40.23
48874;BME280;35220;46.204;5.220;2022-07-29T23:55:15;98870.44;;;24.99;40.33
